createdAt,value
2019-01-31T00:00:41.035Z,32.80
2019-01-31T00:01:41.030Z,33.10
2019-01-31T00:02:41.005Z,31.70
2019-01-31T00:03:40.996Z,32.90
2019-01-31T00:04:40.992Z,32.90
2019-01-31T00:05:40.975Z,33.30
2019-01-31T00:06:40.962Z,32.00
2019-01-31T00:07:40.955Z,34.10
2019-01-31T00:08:45.909Z,32.50
2019-01-31T00:09:41.933Z,32.60
2019-01-31T00:10:40.920Z,33.60
2019-01-31T00:11:40.909Z,32.20
2019-01-31T00:12:40.899Z,32.90
2019-01-31T00:13:40.887Z,33.00
2019-01-31T00:14:40.883Z,33.30
2019-01-31T00:15:40.865Z,34.10
2019-01-31T00:16:40.860Z,32.20
2019-01-31T00:17:40.844Z,33.80
2019-01-31T00:18:40.834Z,33.40
2019-01-31T00:19:40.834Z,32.70
2019-01-31T00:20:40.819Z,34.40
2019-01-31T00:21:40.799Z,34.00
2019-01-31T00:22:40.790Z,32.50
2019-01-31T00:23:40.781Z,33.80
2019-01-31T00:25:01.987Z,33.40
2019-01-31T00:26:22.814Z,30.00
2019-01-31T00:27:22.799Z,31.90
2019-01-31T00:28:22.788Z,33.50
2019-01-31T00:29:42.421Z,33.50
2019-01-31T00:31:04.812Z,30.50
2019-01-31T00:32:04.800Z,32.70
2019-01-31T00:33:04.792Z,32.00
2019-01-31T00:34:04.784Z,33.40
2019-01-31T00:35:04.768Z,31.80
2019-01-31T00:36:04.758Z,32.20
2019-01-31T00:37:04.752Z,31.90
2019-01-31T00:38:04.738Z,32.10
2019-01-31T00:39:04.728Z,31.40
2019-01-31T00:40:04.716Z,32.70
2019-01-31T00:41:04.704Z,31.60
2019-01-31T00:42:04.694Z,31.80
2019-01-31T00:43:04.683Z,31.50
2019-01-31T00:44:04.677Z,32.00
2019-01-31T00:45:04.688Z,32.40
2019-01-31T00:46:04.667Z,31.10
2019-01-31T00:47:04.642Z,32.70
2019-01-31T00:48:04.631Z,31.60
2019-01-31T00:49:04.617Z,32.20
2019-01-31T00:50:04.609Z,33.10
2019-01-31T00:51:04.598Z,34.20
2019-01-31T00:52:04.593Z,31.30
2019-01-31T00:53:04.574Z,32.20
2019-01-31T00:54:04.565Z,31.10
2019-01-31T00:55:04.554Z,31.70
2019-01-31T00:56:04.542Z,32.20
2019-01-31T00:57:04.530Z,32.00
2019-01-31T00:58:04.522Z,32.40
2019-01-31T00:59:04.509Z,32.00
2019-01-31T01:00:04.500Z,31.90
2019-01-31T01:01:04.491Z,33.10
2019-01-31T01:02:04.479Z,32.50
2019-01-31T01:03:04.472Z,32.30
2019-01-31T01:04:04.458Z,31.40
2019-01-31T01:05:04.457Z,32.30
2019-01-31T01:06:04.435Z,32.50
2019-01-31T01:07:04.424Z,33.30
2019-01-31T01:08:04.417Z,32.50
2019-01-31T01:09:07.835Z,32.40
2019-01-31T01:10:04.390Z,31.60
2019-01-31T01:11:04.380Z,31.60
2019-01-31T01:12:04.690Z,32.10
2019-01-31T01:13:04.358Z,33.10
2019-01-31T01:14:04.353Z,32.40
2019-01-31T01:15:04.338Z,32.00
2019-01-31T01:16:04.325Z,32.70
2019-01-31T01:17:04.315Z,32.10
2019-01-31T01:18:04.309Z,32.00
2019-01-31T01:19:04.293Z,32.90
2019-01-31T01:20:04.284Z,32.40
2019-01-31T01:21:04.270Z,33.50
2019-01-31T01:22:04.267Z,32.00
2019-01-31T01:23:04.253Z,32.50
2019-01-31T01:24:04.237Z,32.10
2019-01-31T01:25:04.237Z,32.00
2019-01-31T01:26:04.222Z,32.10
2019-01-31T01:27:04.206Z,32.00
2019-01-31T01:28:04.194Z,32.70
2019-01-31T01:29:04.207Z,32.70
2019-01-31T01:30:04.180Z,31.20
2019-01-31T01:31:04.166Z,33.30
2019-01-31T01:32:04.155Z,33.30
2019-01-31T01:33:04.140Z,32.40
2019-01-31T01:34:04.130Z,30.30
2019-01-31T01:35:04.118Z,32.90
2019-01-31T01:36:04.110Z,31.20
2019-01-31T01:37:04.098Z,33.20
2019-01-31T01:38:04.086Z,31.00
2019-01-31T01:39:04.075Z,32.30
2019-01-31T01:40:04.067Z,30.50
2019-01-31T01:41:04.053Z,32.00
2019-01-31T01:42:04.046Z,32.20
2019-01-31T01:43:04.037Z,32.20
2019-01-31T01:44:04.024Z,32.20
2019-01-31T01:45:04.011Z,32.10
2019-01-31T01:46:03.999Z,31.70
2019-01-31T01:47:03.996Z,31.90
2019-01-31T01:48:03.981Z,31.30
2019-01-31T01:49:03.972Z,31.20
2019-01-31T01:50:03.957Z,32.40
2019-01-31T01:51:03.948Z,31.80
2019-01-31T01:52:03.937Z,31.50
2019-01-31T01:53:03.923Z,32.10
2019-01-31T01:54:03.911Z,31.80
2019-01-31T01:55:03.903Z,31.30
2019-01-31T01:56:03.893Z,31.20
2019-01-31T01:57:03.887Z,31.90
2019-01-31T01:58:03.869Z,32.20
2019-01-31T01:59:03.858Z,32.60
2019-01-31T02:00:03.850Z,32.70
2019-01-31T02:01:03.837Z,30.40
2019-01-31T02:02:03.826Z,32.40
2019-01-31T02:04:32.009Z,28.50
2019-01-31T02:05:52.408Z,31.00
2019-01-31T02:07:33.984Z,26.90
2019-01-31T02:08:33.427Z,31.70
2019-01-31T02:09:55.833Z,28.90
2019-01-31T02:10:55.824Z,31.90
2019-01-31T02:11:55.813Z,30.70
2019-01-31T02:12:55.799Z,32.00
2019-01-31T02:13:55.790Z,32.30
2019-01-31T02:14:55.782Z,31.00
2019-01-31T02:15:55.777Z,32.50
2019-01-31T02:16:55.855Z,32.40
2019-01-31T02:17:55.744Z,32.70
2019-01-31T02:18:55.735Z,31.10
2019-01-31T02:19:55.728Z,32.00
2019-01-31T02:20:55.715Z,31.80
2019-01-31T02:21:55.714Z,31.20
2019-01-31T02:22:55.693Z,30.40
2019-01-31T02:23:55.679Z,31.10
2019-01-31T02:24:55.672Z,30.10
2019-01-31T02:25:55.659Z,30.70
2019-01-31T02:26:55.651Z,30.90
2019-01-31T02:27:55.636Z,30.60
2019-01-31T02:28:55.627Z,30.90
2019-01-31T02:29:55.620Z,30.70
2019-01-31T02:30:55.606Z,31.30
2019-01-31T02:31:55.596Z,31.40
2019-01-31T02:32:55.595Z,31.40
2019-01-31T02:33:55.580Z,31.90
2019-01-31T02:34:55.560Z,32.60
2019-01-31T02:35:55.550Z,31.40
2019-01-31T02:36:55.539Z,30.80
2019-01-31T02:38:14.174Z,30.10
2019-01-31T02:39:59.678Z,28.10
2019-01-31T02:43:33.629Z,27.90
2019-01-31T02:44:53.235Z,30.60
2019-01-31T02:46:15.861Z,30.60
2019-01-31T02:47:15.839Z,31.80
2019-01-31T02:48:35.453Z,29.50
2019-01-31T02:49:57.879Z,28.60
2019-01-31T02:50:57.877Z,30.30
2019-01-31T02:51:57.857Z,29.50
2019-01-31T02:52:57.844Z,30.70
2019-01-31T02:54:16.459Z,29.60
2019-01-31T02:54:57.825Z,29.70
2019-01-31T02:55:57.811Z,29.40
2019-01-31T02:57:18.453Z,29.70
2019-01-31T02:58:39.840Z,28.80
2019-01-31T02:59:39.836Z,29.60
2019-01-31T03:00:39.822Z,30.20
2019-01-31T03:01:59.438Z,29.80
2019-01-31T03:03:21.849Z,25.50
2019-01-31T03:04:21.833Z,29.10
2019-01-31T03:05:21.826Z,28.90
2019-01-31T03:06:21.814Z,28.30
2019-01-31T03:07:21.801Z,29.50
2019-01-31T03:08:21.790Z,29.10
2019-01-31T03:09:21.778Z,28.20
2019-01-31T03:10:21.771Z,28.90
2019-01-31T03:11:21.762Z,29.80
2019-01-31T03:12:21.746Z,27.60
2019-01-31T03:13:21.734Z,28.80
2019-01-31T03:14:21.726Z,28.50
2019-01-31T03:15:21.731Z,28.10
2019-01-31T03:16:21.705Z,28.80
2019-01-31T03:17:21.691Z,28.50
2019-01-31T03:18:21.680Z,28.30
2019-01-31T03:19:21.671Z,28.50
2019-01-31T03:20:21.660Z,27.70
2019-01-31T03:21:21.649Z,28.60
2019-01-31T03:22:21.637Z,28.70
2019-01-31T03:23:21.629Z,29.80
2019-01-31T03:24:21.616Z,28.00
2019-01-31T03:25:21.605Z,28.10
2019-01-31T03:26:21.602Z,29.40
2019-01-31T03:27:21.580Z,28.00
2019-01-31T03:28:21.575Z,28.50
2019-01-31T03:29:21.563Z,28.30
2019-01-31T03:30:24.726Z,28.20
2019-01-31T03:31:21.725Z,28.20
2019-01-31T03:32:21.529Z,27.60
2019-01-31T03:33:21.521Z,28.90
2019-01-31T03:34:41.175Z,28.90
2019-01-31T03:36:03.544Z,27.70
2019-01-31T03:38:51.128Z,26.10
2019-01-31T03:40:59.423Z,25.50
2019-01-31T03:41:59.408Z,27.60
2019-01-31T03:43:19.033Z,27.30
2019-01-31T03:44:41.467Z,25.50
2019-01-31T03:45:41.451Z,28.60
2019-01-31T03:46:41.439Z,27.80
2019-01-31T03:48:01.055Z,27.80
2019-01-31T03:49:12.411Z,24.50
2019-01-31T03:50:12.394Z,27.70
2019-01-31T03:51:12.397Z,29.30
2019-01-31T03:52:12.373Z,28.00
2019-01-31T03:53:12.362Z,29.30
2019-01-31T03:54:12.351Z,28.30
2019-01-31T03:55:12.502Z,28.00
2019-01-31T03:56:12.332Z,27.90
2019-01-31T03:57:12.317Z,27.60
2019-01-31T03:58:12.307Z,27.50
2019-01-31T03:59:12.297Z,28.60
2019-01-31T04:00:12.291Z,28.70
2019-01-31T04:01:12.290Z,28.80
2019-01-31T04:02:12.268Z,27.90
2019-01-31T04:03:12.252Z,28.50
2019-01-31T04:04:12.241Z,28.40
2019-01-31T04:05:12.231Z,29.30
2019-01-31T04:06:12.234Z,27.70
2019-01-31T04:07:12.272Z,27.40
2019-01-31T04:08:12.196Z,27.90
2019-01-31T04:09:12.196Z,28.00
2019-01-31T04:10:19.029Z,28.30
2019-01-31T04:11:13.163Z,26.50
2019-01-31T04:12:12.165Z,27.70
2019-01-31T04:13:12.142Z,27.30
2019-01-31T04:14:12.132Z,28.20
2019-01-31T04:15:12.123Z,27.80
2019-01-31T04:16:12.114Z,27.40
2019-01-31T04:17:12.103Z,26.60
2019-01-31T04:18:12.087Z,26.70
2019-01-31T04:19:12.079Z,25.80
2019-01-31T04:20:12.067Z,27.10
2019-01-31T04:21:12.055Z,26.70
2019-01-31T04:22:12.046Z,27.30
2019-01-31T04:23:12.040Z,26.60
2019-01-31T04:24:12.026Z,26.20
2019-01-31T04:25:12.022Z,27.70
2019-01-31T04:26:12.002Z,28.00
2019-01-31T04:27:11.992Z,27.70
2019-01-31T04:28:11.979Z,26.00
2019-01-31T04:29:11.993Z,27.20
2019-01-31T04:30:11.956Z,27.10
2019-01-31T04:31:11.944Z,26.90
2019-01-31T04:32:12.096Z,27.20
2019-01-31T04:33:11.935Z,26.90
2019-01-31T04:34:11.917Z,26.70
2019-01-31T04:35:11.902Z,27.00
2019-01-31T04:36:11.893Z,27.20
2019-01-31T04:37:11.880Z,27.60
2019-01-31T04:38:11.871Z,27.70
2019-01-31T04:39:11.857Z,26.80
2019-01-31T04:40:11.859Z,26.60
2019-01-31T04:41:11.835Z,27.20
2019-01-31T04:42:11.829Z,27.30
2019-01-31T04:43:11.813Z,27.30
2019-01-31T04:44:11.804Z,28.00
2019-01-31T04:45:11.791Z,27.10
2019-01-31T04:46:11.785Z,27.20
2019-01-31T04:47:11.779Z,27.20
2019-01-31T04:48:11.760Z,26.40
2019-01-31T04:49:11.748Z,27.00
2019-01-31T04:50:11.754Z,27.60
2019-01-31T04:51:11.731Z,26.50
2019-01-31T04:52:11.720Z,25.70
2019-01-31T04:53:11.709Z,26.90
2019-01-31T04:54:11.693Z,27.40
2019-01-31T04:55:11.692Z,26.60
2019-01-31T04:56:11.674Z,27.60
2019-01-31T04:57:11.661Z,25.50
2019-01-31T04:58:11.651Z,27.80
2019-01-31T04:59:11.639Z,26.90
2019-01-31T05:00:11.632Z,27.40
2019-01-31T05:01:11.619Z,27.40
2019-01-31T05:02:11.607Z,27.10
2019-01-31T05:03:11.598Z,24.70
2019-01-31T05:04:11.585Z,26.40
2019-01-31T05:05:11.573Z,25.60
2019-01-31T05:06:11.561Z,27.00
2019-01-31T05:07:11.550Z,26.90
2019-01-31T05:08:11.545Z,25.70
2019-01-31T05:09:11.529Z,26.10
2019-01-31T05:10:11.536Z,27.00
2019-01-31T05:11:11.508Z,30.80
2019-01-31T05:12:11.498Z,41.00
2019-01-31T05:13:11.486Z,44.60
2019-01-31T05:14:11.477Z,49.80
2019-01-31T05:15:11.464Z,42.40
2019-01-31T05:16:11.459Z,45.90
2019-01-31T05:17:11.459Z,46.90
2019-01-31T05:18:11.430Z,40.60
2019-01-31T05:19:11.420Z,33.90
2019-01-31T05:20:11.414Z,29.20
2019-01-31T05:21:11.397Z,25.70
2019-01-31T05:22:11.388Z,27.60
2019-01-31T05:23:11.375Z,26.60
2019-01-31T05:24:11.367Z,27.50
2019-01-31T05:25:11.359Z,32.40
2019-01-31T05:26:11.341Z,32.10
2019-01-31T05:27:11.331Z,31.00
2019-01-31T05:28:11.321Z,31.80
2019-01-31T05:29:11.308Z,28.60
2019-01-31T05:30:11.318Z,27.10
2019-01-31T05:31:11.290Z,25.70
2019-01-31T05:32:11.278Z,25.30
2019-01-31T05:33:11.267Z,26.20
2019-01-31T05:34:11.263Z,25.20
2019-01-31T05:35:11.245Z,24.20
2019-01-31T05:36:11.233Z,24.10
2019-01-31T05:37:11.226Z,23.90
2019-01-31T05:38:11.210Z,25.00
2019-01-31T05:39:11.199Z,23.50
2019-01-31T05:40:11.196Z,24.40
2019-01-31T05:41:11.181Z,24.10
2019-01-31T05:42:11.172Z,24.50
2019-01-31T05:43:11.157Z,23.90
2019-01-31T05:44:11.146Z,23.90
2019-01-31T05:45:11.133Z,24.00
2019-01-31T05:46:11.138Z,24.60
2019-01-31T05:47:11.111Z,23.70
2019-01-31T05:48:11.105Z,23.80
2019-01-31T05:49:11.123Z,23.50
2019-01-31T05:50:11.081Z,24.00
2019-01-31T05:51:11.067Z,30.10
2019-01-31T05:52:11.055Z,37.10
2019-01-31T05:53:11.054Z,40.50
2019-01-31T05:54:11.040Z,41.40
2019-01-31T05:55:11.024Z,36.50
2019-01-31T05:56:11.017Z,37.70
2019-01-31T05:57:11.004Z,30.40
2019-01-31T05:58:10.998Z,25.70
2019-01-31T05:59:10.987Z,24.50
2019-01-31T06:00:10.975Z,23.90
2019-01-31T06:01:10.958Z,23.70
2019-01-31T06:02:10.947Z,23.70
2019-01-31T06:03:10.936Z,24.20
2019-01-31T06:04:10.926Z,23.90
2019-01-31T06:05:10.915Z,25.00
2019-01-31T06:06:10.904Z,24.10
2019-01-31T06:07:11.585Z,24.10
2019-01-31T06:08:10.903Z,23.20
2019-01-31T06:09:10.874Z,23.50
2019-01-31T06:10:10.859Z,23.40
2019-01-31T06:11:10.855Z,23.50
2019-01-31T06:12:10.836Z,23.20
2019-01-31T06:13:10.826Z,23.70
2019-01-31T06:14:10.816Z,23.70
2019-01-31T06:15:10.804Z,24.40
2019-01-31T06:16:10.800Z,23.70
2019-01-31T06:17:10.782Z,21.90
2019-01-31T06:18:10.770Z,24.00
2019-01-31T06:19:10.763Z,22.80
2019-01-31T06:20:10.753Z,24.40
2019-01-31T06:21:10.741Z,23.90
2019-01-31T06:22:10.728Z,23.00
2019-01-31T06:23:10.719Z,23.10
2019-01-31T06:24:10.704Z,22.50
2019-01-31T06:25:10.698Z,23.00
2019-01-31T06:26:10.682Z,22.30
2019-01-31T06:27:10.672Z,23.10
2019-01-31T06:28:12.888Z,23.80
2019-01-31T06:29:10.663Z,21.90
2019-01-31T06:30:10.643Z,23.00
2019-01-31T06:31:10.628Z,23.40
2019-01-31T06:32:10.622Z,22.30
2019-01-31T06:33:10.608Z,24.30
2019-01-31T06:34:10.607Z,23.10
2019-01-31T06:35:10.584Z,23.50
2019-01-31T06:36:10.611Z,23.20
2019-01-31T06:37:10.562Z,22.90
2019-01-31T06:38:10.554Z,22.60
2019-01-31T06:39:10.545Z,23.60
2019-01-31T06:40:10.562Z,22.40
2019-01-31T06:41:18.392Z,25.10
2019-01-31T06:42:11.508Z,28.00
2019-01-31T06:43:12.179Z,27.20
2019-01-31T06:44:10.491Z,25.90
2019-01-31T06:45:10.480Z,25.00
2019-01-31T06:46:10.467Z,24.80
2019-01-31T06:47:10.453Z,24.40
2019-01-31T06:48:10.448Z,23.50
2019-01-31T06:49:10.431Z,25.30
2019-01-31T06:50:10.420Z,24.20
2019-01-31T06:51:10.407Z,25.00
2019-01-31T06:52:10.400Z,25.10
2019-01-31T06:53:10.386Z,24.10
2019-01-31T06:54:10.380Z,23.70
2019-01-31T06:55:10.366Z,23.50
2019-01-31T06:56:10.356Z,24.10
2019-01-31T06:57:10.344Z,23.60
2019-01-31T06:58:10.341Z,23.80
2019-01-31T06:59:10.321Z,22.20
2019-01-31T07:00:10.310Z,22.00
2019-01-31T07:01:10.306Z,22.80
2019-01-31T07:02:10.295Z,22.30
2019-01-31T07:03:10.280Z,23.60
2019-01-31T07:04:11.159Z,22.80
2019-01-31T07:05:10.254Z,22.60
2019-01-31T07:06:10.249Z,22.20
2019-01-31T07:07:10.236Z,22.60
2019-01-31T07:08:10.226Z,23.30
2019-01-31T07:09:10.211Z,23.10
2019-01-31T07:10:10.204Z,22.90
2019-01-31T07:11:10.189Z,23.40
2019-01-31T07:12:10.201Z,22.10
2019-01-31T07:13:10.168Z,24.10
2019-01-31T07:14:10.162Z,23.80
2019-01-31T07:15:10.146Z,23.50
2019-01-31T07:16:10.139Z,24.60
2019-01-31T07:17:10.123Z,24.90
2019-01-31T07:18:10.127Z,24.30
2019-01-31T07:19:10.116Z,23.50
2019-01-31T07:20:10.097Z,24.70
2019-01-31T07:21:10.079Z,23.80
2019-01-31T07:22:10.072Z,23.40
2019-01-31T07:23:10.059Z,23.30
2019-01-31T07:24:10.062Z,22.40
2019-01-31T07:25:10.036Z,23.30
2019-01-31T07:26:10.026Z,24.30
2019-01-31T07:27:10.013Z,24.30
2019-01-31T07:28:10.002Z,23.00
2019-01-31T07:29:09.992Z,24.50
2019-01-31T07:30:09.991Z,23.70
2019-01-31T07:31:09.970Z,23.90
2019-01-31T07:32:09.963Z,24.30
2019-01-31T07:33:09.948Z,24.20
2019-01-31T07:34:09.937Z,27.10
2019-01-31T07:35:09.930Z,24.30
2019-01-31T07:36:09.923Z,27.60
2019-01-31T07:37:09.908Z,42.10
2019-01-31T07:38:09.893Z,33.00
2019-01-31T07:39:09.883Z,34.20
2019-01-31T07:40:09.880Z,32.90
2019-01-31T07:41:11.251Z,30.80
2019-01-31T07:42:09.849Z,26.90
2019-01-31T07:43:09.843Z,26.30
2019-01-31T07:44:09.828Z,27.10
2019-01-31T07:45:09.817Z,25.50
2019-01-31T07:46:09.806Z,24.30
2019-01-31T07:47:09.795Z,24.70
2019-01-31T07:48:09.783Z,23.90
2019-01-31T07:49:09.773Z,24.50
2019-01-31T07:50:09.761Z,24.50
2019-01-31T07:51:09.749Z,24.20
2019-01-31T07:52:09.741Z,23.50
2019-01-31T07:53:12.718Z,23.50
2019-01-31T07:54:09.717Z,23.50
2019-01-31T07:55:09.707Z,23.90
2019-01-31T07:56:09.694Z,23.80
2019-01-31T07:57:09.701Z,22.50
2019-01-31T07:58:09.682Z,23.60
2019-01-31T07:59:09.663Z,23.50
2019-01-31T08:00:09.652Z,24.20
2019-01-31T08:01:09.655Z,23.20
2019-01-31T08:02:09.630Z,22.90
2019-01-31T08:03:09.620Z,24.70
2019-01-31T08:04:09.609Z,23.10
2019-01-31T08:05:09.596Z,24.70
2019-01-31T08:06:09.588Z,24.30
2019-01-31T08:07:09.576Z,24.30
2019-01-31T08:08:09.571Z,23.70
2019-01-31T08:09:09.580Z,24.80
2019-01-31T08:10:09.552Z,23.10
2019-01-31T08:11:09.534Z,23.60
2019-01-31T08:12:09.519Z,23.80
2019-01-31T08:13:09.508Z,24.10
2019-01-31T08:14:09.515Z,23.80
2019-01-31T08:15:09.499Z,23.60
2019-01-31T08:16:09.479Z,23.90
2019-01-31T08:17:09.467Z,23.40
2019-01-31T08:18:11.084Z,24.30
2019-01-31T08:19:09.443Z,23.80
2019-01-31T08:20:09.432Z,24.10
2019-01-31T08:21:09.422Z,23.80
2019-01-31T08:22:09.410Z,23.00
2019-01-31T08:23:09.398Z,23.40
2019-01-31T08:24:09.716Z,24.40
2019-01-31T08:25:09.385Z,33.90
2019-01-31T08:26:09.369Z,23.90
2019-01-31T08:27:09.363Z,24.20
2019-01-31T08:28:09.350Z,24.40
2019-01-31T08:29:09.342Z,25.10
2019-01-31T08:30:09.321Z,24.90
2019-01-31T08:31:09.315Z,24.40
2019-01-31T08:32:09.310Z,23.60
2019-01-31T08:33:09.297Z,22.80
2019-01-31T08:34:09.278Z,23.40
2019-01-31T08:35:09.267Z,23.50
2019-01-31T08:36:09.255Z,23.50
2019-01-31T08:37:09.248Z,22.70
2019-01-31T08:38:09.238Z,23.90
2019-01-31T08:39:09.223Z,23.90
2019-01-31T08:40:09.211Z,23.20
2019-01-31T08:41:09.201Z,23.20
2019-01-31T08:42:09.195Z,24.10
2019-01-31T08:43:09.184Z,25.20
2019-01-31T08:44:09.169Z,23.80
2019-01-31T08:45:09.157Z,23.60
2019-01-31T08:46:09.146Z,26.30
2019-01-31T08:47:09.136Z,32.90
2019-01-31T08:48:09.124Z,40.90
2019-01-31T08:49:09.112Z,48.60
2019-01-31T08:50:09.102Z,38.70
2019-01-31T08:51:09.093Z,29.80
2019-01-31T08:52:09.080Z,26.10
2019-01-31T08:53:09.071Z,26.20
2019-01-31T08:54:09.063Z,25.80
2019-01-31T08:55:09.049Z,25.00
2019-01-31T08:56:09.037Z,24.30
2019-01-31T08:57:09.024Z,24.50
2019-01-31T08:58:09.016Z,24.50
2019-01-31T08:59:09.007Z,24.80
2019-01-31T09:00:08.996Z,24.40
2019-01-31T09:01:08.990Z,23.50
2019-01-31T09:02:08.971Z,23.80
2019-01-31T09:03:08.959Z,23.60
2019-01-31T09:04:08.947Z,24.20
2019-01-31T09:05:08.935Z,23.30
2019-01-31T09:06:08.926Z,23.90
2019-01-31T09:07:08.914Z,23.10
2019-01-31T09:08:08.905Z,24.00
2019-01-31T09:09:08.892Z,22.70
2019-01-31T09:10:08.890Z,22.80
2019-01-31T09:11:08.871Z,24.00
2019-01-31T09:12:15.428Z,23.40
2019-01-31T09:13:09.847Z,23.50
2019-01-31T09:14:08.837Z,23.40
2019-01-31T09:15:08.827Z,23.10
2019-01-31T09:16:08.815Z,22.80
2019-01-31T09:17:08.809Z,24.30
2019-01-31T09:18:08.797Z,24.60
2019-01-31T09:19:08.786Z,23.30
2019-01-31T09:20:08.775Z,23.50
2019-01-31T09:21:08.760Z,24.20
2019-01-31T09:22:08.749Z,23.70
2019-01-31T09:23:08.742Z,23.40
2019-01-31T09:24:08.731Z,22.40
2019-01-31T09:25:08.728Z,22.70
2019-01-31T09:26:08.707Z,25.00
2019-01-31T09:27:08.696Z,52.50
2019-01-31T09:28:08.683Z,43.00
2019-01-31T09:29:08.679Z,40.90
2019-01-31T09:30:08.661Z,48.60
2019-01-31T09:31:08.652Z,31.70
2019-01-31T09:32:08.641Z,26.50
2019-01-31T09:33:08.631Z,23.90
2019-01-31T09:34:08.624Z,23.50
2019-01-31T09:35:08.609Z,22.50
2019-01-31T09:36:08.599Z,22.30
2019-01-31T09:37:08.586Z,22.40
2019-01-31T09:38:08.578Z,21.40
2019-01-31T09:39:08.564Z,21.60
2019-01-31T09:40:08.574Z,22.80
2019-01-31T09:41:08.690Z,22.30
2019-01-31T09:42:08.531Z,21.70
2019-01-31T09:43:08.520Z,22.20
2019-01-31T09:44:08.509Z,21.80
2019-01-31T09:45:08.501Z,21.90
2019-01-31T09:46:08.491Z,21.90
2019-01-31T09:47:08.475Z,21.40
2019-01-31T09:48:08.466Z,21.10
2019-01-31T09:49:08.458Z,20.20
2019-01-31T09:50:08.444Z,20.80
2019-01-31T09:51:08.438Z,21.20
2019-01-31T09:52:08.423Z,21.80
2019-01-31T09:53:08.424Z,20.90
2019-01-31T09:54:08.398Z,21.00
2019-01-31T09:55:08.389Z,21.90
2019-01-31T09:56:08.377Z,21.70
2019-01-31T09:57:08.370Z,21.30
2019-01-31T09:58:08.356Z,21.70
2019-01-31T09:59:08.350Z,21.30
2019-01-31T10:00:08.333Z,20.90
2019-01-31T10:01:08.322Z,20.80
2019-01-31T10:05:04.201Z,18.20
2019-01-31T10:06:22.337Z,20.00
2019-01-31T10:07:47.248Z,18.50
2019-01-31T10:09:05.885Z,20.90
2019-01-31T10:11:56.404Z,20.10
2019-01-31T10:14:24.332Z,19.70
2019-01-31T10:15:24.362Z,22.00
2019-01-31T10:16:24.327Z,21.90
2019-01-31T10:17:24.345Z,21.40
2019-01-31T10:18:24.256Z,20.70
2019-01-31T10:19:24.292Z,21.30
2019-01-31T10:20:24.241Z,22.00
2019-01-31T10:21:24.221Z,21.50
2019-01-31T10:22:24.241Z,22.50
2019-01-31T10:23:24.197Z,20.70
2019-01-31T10:24:24.231Z,20.90
2019-01-31T10:25:24.192Z,21.10
2019-01-31T10:26:24.169Z,22.20
2019-01-31T10:27:24.156Z,21.60
2019-01-31T10:28:24.155Z,20.70
2019-01-31T10:29:24.146Z,21.10
2019-01-31T10:30:24.120Z,22.50
2019-01-31T10:31:24.115Z,21.10
2019-01-31T10:32:24.107Z,21.70
2019-01-31T10:33:24.091Z,20.60
2019-01-31T10:34:24.077Z,20.80
2019-01-31T10:35:24.066Z,21.70
2019-01-31T10:36:24.054Z,27.00
2019-01-31T10:37:24.044Z,25.50
2019-01-31T10:38:24.031Z,23.90
2019-01-31T10:39:24.038Z,21.40
2019-01-31T10:40:24.009Z,20.80
2019-01-31T10:41:24.003Z,21.70
2019-01-31T10:42:23.987Z,20.20
2019-01-31T10:43:23.982Z,19.70
2019-01-31T10:44:23.969Z,20.80
2019-01-31T10:45:24.680Z,19.60
2019-01-31T10:46:23.942Z,19.20
2019-01-31T10:47:23.931Z,20.60
2019-01-31T10:48:23.920Z,19.90
2019-01-31T10:49:23.916Z,18.70
2019-01-31T10:50:23.898Z,19.50
2019-01-31T10:51:23.888Z,19.50
2019-01-31T10:52:23.876Z,19.30
2019-01-31T10:53:23.864Z,19.00
2019-01-31T10:54:23.854Z,18.50
2019-01-31T10:55:23.844Z,19.20
2019-01-31T10:56:23.835Z,19.70
2019-01-31T10:57:23.819Z,19.40
2019-01-31T10:58:23.823Z,19.10
2019-01-31T10:59:23.796Z,20.60
2019-01-31T11:00:23.800Z,19.30
2019-01-31T11:01:23.774Z,19.70
2019-01-31T11:02:23.763Z,19.50
2019-01-31T11:03:23.752Z,19.80
2019-01-31T11:04:23.741Z,20.10
2019-01-31T11:05:23.730Z,18.90
2019-01-31T11:06:23.725Z,18.20
2019-01-31T11:07:23.731Z,18.30
2019-01-31T11:08:23.697Z,17.70
2019-01-31T11:09:23.687Z,18.70
2019-01-31T11:10:23.674Z,18.20
2019-01-31T11:11:23.666Z,18.00
2019-01-31T11:12:23.661Z,19.10
2019-01-31T11:13:23.641Z,18.30
2019-01-31T11:14:23.631Z,17.90
2019-01-31T11:15:23.621Z,18.60
2019-01-31T11:16:23.609Z,20.30
2019-01-31T11:17:23.613Z,22.00
2019-01-31T11:18:23.606Z,29.20
2019-01-31T11:19:23.574Z,38.80
2019-01-31T11:20:23.563Z,37.40
2019-01-31T11:21:23.551Z,23.70
2019-01-31T11:22:23.543Z,19.20
2019-01-31T11:23:23.537Z,18.30
2019-01-31T11:24:23.527Z,18.60
2019-01-31T11:25:23.509Z,16.90
2019-01-31T11:26:23.497Z,17.80
2019-01-31T11:27:23.488Z,16.90
2019-01-31T11:28:23.475Z,17.00
2019-01-31T11:29:23.502Z,17.10
2019-01-31T11:30:23.451Z,17.10
2019-01-31T11:31:23.441Z,16.70
2019-01-31T11:32:23.430Z,17.80
2019-01-31T11:33:23.434Z,17.20
2019-01-31T11:34:32.607Z,16.90
2019-01-31T11:35:24.400Z,16.80
2019-01-31T11:36:23.392Z,17.20
2019-01-31T11:37:23.375Z,16.60
2019-01-31T11:38:23.384Z,16.70
2019-01-31T11:39:23.355Z,16.70
2019-01-31T11:40:23.343Z,16.30
2019-01-31T11:41:23.333Z,15.80
2019-01-31T11:42:23.320Z,16.30
2019-01-31T11:43:23.310Z,16.70
2019-01-31T11:44:23.298Z,16.00
2019-01-31T11:45:23.292Z,16.30
2019-01-31T11:46:23.276Z,15.70
2019-01-31T11:47:23.301Z,15.80
2019-01-31T11:48:23.252Z,15.60
2019-01-31T11:49:23.242Z,15.80
2019-01-31T11:50:23.231Z,16.10
2019-01-31T11:51:23.220Z,15.30
2019-01-31T11:52:23.211Z,15.00
2019-01-31T11:53:23.198Z,14.90
2019-01-31T11:54:23.188Z,14.70
2019-01-31T11:55:23.177Z,15.00
2019-01-31T11:56:23.166Z,14.60
2019-01-31T11:57:23.160Z,15.30
2019-01-31T11:58:23.144Z,14.80
2019-01-31T11:59:23.131Z,14.40
2019-01-31T12:00:23.121Z,14.30
2019-01-31T12:01:23.110Z,15.60
2019-01-31T12:02:23.106Z,14.60
2019-01-31T12:03:23.086Z,13.90
2019-01-31T12:04:23.077Z,15.10
2019-01-31T12:05:23.066Z,15.60
2019-01-31T12:06:23.053Z,15.00
2019-01-31T12:07:23.078Z,14.70
2019-01-31T12:08:23.035Z,14.70
2019-01-31T12:09:23.040Z,14.10
2019-01-31T12:10:23.008Z,14.30
2019-01-31T12:11:23.001Z,13.40
2019-01-31T12:12:22.990Z,14.00
2019-01-31T12:13:23.866Z,13.90
2019-01-31T12:14:22.970Z,13.50
2019-01-31T12:15:22.978Z,16.60
2019-01-31T12:16:22.943Z,25.60
2019-01-31T12:17:22.932Z,22.10
2019-01-31T12:18:22.924Z,17.70
2019-01-31T12:19:23.023Z,14.80
2019-01-31T12:20:22.904Z,13.10
2019-01-31T12:21:22.887Z,12.50
2019-01-31T12:22:22.876Z,12.60
2019-01-31T12:23:22.891Z,11.60
2019-01-31T12:24:22.853Z,12.30
2019-01-31T12:25:22.845Z,11.80
2019-01-31T12:26:22.853Z,12.00
2019-01-31T12:27:22.819Z,11.60
2019-01-31T12:28:22.809Z,12.10
2019-01-31T12:29:22.825Z,12.70
2019-01-31T12:30:22.789Z,12.40
2019-01-31T12:31:22.809Z,12.00
2019-01-31T12:32:22.764Z,11.90
2019-01-31T12:33:22.754Z,12.20
2019-01-31T12:34:22.742Z,11.50
2019-01-31T12:35:22.733Z,12.50
2019-01-31T12:36:22.722Z,12.20
2019-01-31T12:37:22.758Z,11.40
2019-01-31T12:38:22.721Z,12.50
2019-01-31T12:39:22.688Z,12.50
2019-01-31T12:40:22.676Z,12.40
2019-01-31T12:41:22.666Z,13.10
2019-01-31T12:42:22.661Z,12.50
2019-01-31T12:43:34.417Z,12.50
2019-01-31T12:44:23.630Z,11.80
2019-01-31T12:45:22.624Z,12.00
2019-01-31T12:46:22.608Z,11.70
2019-01-31T12:47:22.598Z,11.50
2019-01-31T12:48:22.605Z,11.00
2019-01-31T12:49:22.577Z,12.00
2019-01-31T12:50:22.564Z,11.10
2019-01-31T12:51:22.569Z,10.80
2019-01-31T12:52:22.543Z,9.60
2019-01-31T12:53:22.548Z,9.90
2019-01-31T12:54:22.526Z,10.10
2019-01-31T12:55:22.518Z,9.40
2019-01-31T12:56:22.505Z,9.80
2019-01-31T12:57:22.487Z,9.20
2019-01-31T12:58:33.052Z,9.00
2019-01-31T12:59:23.504Z,9.60
2019-01-31T13:00:22.453Z,9.90
2019-01-31T13:01:22.458Z,10.30
2019-01-31T13:02:22.433Z,9.30
2019-01-31T13:03:22.421Z,9.60
2019-01-31T13:04:22.408Z,9.30
2019-01-31T13:05:22.401Z,10.00
2019-01-31T13:06:22.392Z,10.10
2019-01-31T13:07:22.376Z,9.90
2019-01-31T13:08:22.376Z,9.70
2019-01-31T13:09:22.354Z,9.90
2019-01-31T13:10:22.348Z,10.00
2019-01-31T13:11:22.350Z,10.00
2019-01-31T13:12:22.321Z,10.40
2019-01-31T13:13:22.309Z,9.80
2019-01-31T13:14:22.300Z,10.70
2019-01-31T13:15:22.301Z,9.60
2019-01-31T13:16:22.304Z,10.20